»·PEaware :: DAL1569 KRNO-KSLC

DAL1569 :: KRNO-KSLC

FLIGHT INFORMATION

Flight Status: Arrived
Operator:
Delta Air Lines
More flights by this operator :: More flights under this callsign
Pilot: John C. (18682)
Aircraft: BOEING 737-800
(B738)
More flights by this aircraft type
Origin: KRNO Reno/Tahoe Intl
United States
Destination: KSLC Salt Lake City Intl
United States
More flights between these airports :: More routes between these airports
Route: +ZEFFR6 BLKJK LLC BAM J154 BVL WAATS5
File this flight plan on PilotEdge
Remarks:
Altitude:
(Current/Filed)
39,000ft
Speed:
(Current/Filed)
446kts
Departed: 18-Nov-20 06:29 PM
Arrived: 18-Nov-20 07:34 PM
Distance/Time
Traveled:
365nm/1:04
Distance/Time
To Go:
Arrived

Flight Plot

Page will automatically refresh every two minutes.

Flight plan parsing failed; only flown route is shown


Map Options




Map Legend


Flown Route
Filed Route
Departure Airport
Arrival Airport
Navaid (VOR, NDB)
Fix

Horizontal Profiles

Position Reports

Time Latitude Longitude Heading Altitude Ground
Speed
18-Nov-20 18:06 39.505126 -119.772354 246 4414ft 0kts
18-Nov-20 18:07 39.505126 -119.772354 246 4414ft 0kts
18-Nov-20 18:08 39.505126 -119.772354 246 4414ft 0kts
18-Nov-20 18:09 39.505126 -119.772354 246 4414ft 0kts
18-Nov-20 18:10 39.505126 -119.772354 246 4414ft 0kts
18-Nov-20 18:11 39.505126 -119.772354 246 4414ft 0kts
18-Nov-20 18:12 39.505126 -119.772354 246 4413ft 0kts
18-Nov-20 18:13 39.505126 -119.772354 246 4413ft 0kts
18-Nov-20 18:14 39.505126 -119.772354 246 4413ft 0kts
18-Nov-20 18:15 39.505126 -119.772354 246 4413ft 0kts
18-Nov-20 18:16 39.505126 -119.772354 246 4413ft 0kts
18-Nov-20 18:17 39.505126 -119.772354 246 4413ft 0kts
18-Nov-20 18:18 39.505126 -119.772354 246 4413ft 0kts
18-Nov-20 18:19 39.505126 -119.772354 246 4413ft 0kts
18-Nov-20 18:20 39.505126 -119.772353 246 4413ft 0kts
18-Nov-20 18:22 39.505206 -119.772118 245 4413ft 2kts
18-Nov-20 18:23 39.505113 -119.771487 353 4412ft 1kts
18-Nov-20 18:24 39.505025 -119.771489 0 4412ft 0kts
18-Nov-20 18:25 39.505025 -119.771489 0 4412ft 0kts
18-Nov-20 18:26 39.506886 -119.771495 359 4415ft 19kts
18-Nov-20 18:27 39.512691 -119.771480 0 4421ft 17kts
18-Nov-20 18:28 39.513675 -119.769430 123 4419ft 5kts
18-Nov-20 18:29 39.498748 -119.769243 180 4409ft 153kts
18-Nov-20 18:30 39.447153 -119.767142 188 6097ft 196kts
18-Nov-20 18:31 39.382725 -119.769804 185 7441ft 270kts
18-Nov-20 18:32 39.310542 -119.741703 141 10694ft 299kts
18-Nov-20 18:33 39.291694 -119.629697 68 12534ft 392kts
18-Nov-20 18:34 39.356061 -119.509019 46 15075ft 418kts
18-Nov-20 18:35 39.441815 -119.403402 39 17528ft 436kts
18-Nov-20 18:36 39.532896 -119.294123 39 19793ft 455kts
18-Nov-20 18:37 39.627591 -119.180968 38 21821ft 473kts
18-Nov-20 18:37 39.709207 -119.083113 37 23355ft 486kts
18-Nov-20 18:39 39.826609 -118.941769 37 25430ft 501kts
18-Nov-20 18:39 39.912302 -118.838157 36 26867ft 510kts
18-Nov-20 18:41 40.034822 -118.689396 35 28580ft 524kts
18-Nov-20 18:41 40.114362 -118.566498 57 29700ft 549kts
18-Nov-20 18:43 40.186170 -118.349728 67 31251ft 562kts
18-Nov-20 18:43 40.231676 -118.189809 68 32411ft 563kts
18-Nov-20 18:44 40.285014 -117.996234 68 33698ft 565kts
18-Nov-20 18:46 40.346430 -117.769758 68 35268ft 563kts
18-Nov-20 18:46 40.389596 -117.609092 68 36312ft 562kts
18-Nov-20 18:47 40.441073 -117.416098 68 37407ft 562kts
18-Nov-20 18:48 40.492541 -117.222236 69 38417ft 562kts
18-Nov-20 18:49 40.543153 -117.027311 76 39050ft 568kts
18-Nov-20 18:50 40.571175 -116.823353 86 39055ft 566kts
18-Nov-20 18:51 40.587281 -116.617949 88 39054ft 565kts
18-Nov-20 18:52 40.600476 -116.412125 89 39054ft 565kts
18-Nov-20 18:53 40.612967 -116.206529 90 39042ft 563kts
18-Nov-20 18:54 40.624906 -116.000736 90 39036ft 564kts
18-Nov-20 18:55 40.636372 -115.794853 90 39036ft 564kts
18-Nov-20 18:56 40.647467 -115.588662 90 39036ft 564kts
18-Nov-20 18:57 40.658170 -115.382774 90 39036ft 564kts
18-Nov-20 18:58 40.668674 -115.177561 90 39036ft 561kts
18-Nov-20 18:59 40.678601 -114.974214 90 39036ft 551kts
18-Nov-20 19:00 40.686403 -114.772892 91 38516ft 560kts
18-Nov-20 19:01 40.694835 -114.564796 90 35200ft 574kts
18-Nov-20 19:02 40.703636 -114.355506 90 32327ft 568kts
18-Nov-20 19:03 40.712021 -114.157317 91 29957ft 522kts
18-Nov-20 19:04 40.719394 -113.972558 91 26761ft 491kts
18-Nov-20 19:05 40.726122 -113.795033 91 24487ft 476kts
18-Nov-20 19:06 40.727069 -113.625823 93 24012ft 459kts
18-Nov-20 19:07 40.726198 -113.457812 92 24009ft 457kts
18-Nov-20 19:08 40.725646 -113.301583 93 24009ft 458kts
18-Nov-20 19:09 40.725093 -113.133951 93 24021ft 457kts
18-Nov-20 19:10 40.724285 -112.968653 93 22120ft 443kts
18-Nov-20 19:11 40.722996 -112.808655 93 20197ft 427kts
18-Nov-20 19:12 40.721137 -112.655327 92 18439ft 409kts
18-Nov-20 19:13 40.719376 -112.508755 93 16813ft 386kts
18-Nov-20 19:14 40.714751 -112.364257 93 13446ft 390kts
18-Nov-20 19:15 40.712117 -112.230391 88 12011ft 341kts
18-Nov-20 19:16 40.742519 -112.117465 30 12010ft 340kts
18-Nov-20 19:17 40.828741 -112.100245 350 11742ft 295kts
18-Nov-20 19:18 40.908351 -112.110389 351 10689ft 275kts
18-Nov-20 19:19 40.980346 -112.119015 352 9673ft 255kts
18-Nov-20 19:20 41.050784 -112.127445 353 9007ft 257kts
18-Nov-20 19:21 41.121954 -112.135961 352 8995ft 257kts
18-Nov-20 19:22 41.193176 -112.144503 352 8989ft 257kts
18-Nov-20 19:23 41.244867 -112.099223 95 8986ft 251kts
18-Nov-20 19:24 41.202678 -112.037652 151 8987ft 231kts
18-Nov-20 19:25 41.141863 -112.019951 180 8995ft 224kts
18-Nov-20 19:26 41.080388 -112.008655 175 8999ft 225kts
18-Nov-20 19:27 41.018976 -112.001572 175 8539ft 208kts
18-Nov-20 19:28 40.964166 -111.995201 174 7370ft 190kts
18-Nov-20 19:29 40.911391 -111.989023 174 6309ft 176kts
18-Nov-20 19:30 40.865352 -111.983668 174 5431ft 155kts
18-Nov-20 19:31 40.821649 -111.978569 174 4566ft 158kts
18-Nov-20 19:32 40.788889 -111.974802 175 4236ft 43kts
18-Nov-20 19:33 40.784886 -111.976301 318 4236ft 6kts
18-Nov-20 19:34 40.788604 -111.976919 355 4236ft 17kts
18-Nov-20 19:35 40.789347 -111.979865 187 4236ft 9kts
18-Nov-20 19:36 40.788498 -111.980718 282 4236ft 1kts
18-Nov-20 19:37 40.788501 -111.980733 282 4236ft 0kts
18-Nov-20 19:38 40.788501 -111.980733 282 4236ft 0kts
18-Nov-20 19:39 40.788501 -111.980733 282 4236ft 0kts

Navigation Log

Ident Type
Flight plan parsing failed, navigation log unavailable